South Lake Tahoe, CA

9:42 AM PDT on October 02, 2014 (GMT -0700)
Placerville | Change Station
CLOSE
Current Station
Airport
Location: Placerville,
Elevation: 2582 ft
Nearby Weather Stations

Elev 2582 ft 38.72 °N, 120.75 °W | Updated 7 minutes ago

Clear
Clear
73 °F
Feels Like 73 °F
N
5
Wind Variable Wind from SE

Today
High -- | Low -- °F
--% Chance of Precip.
Yesterday
High -- | Low -- °F
Precip. -- in
6:57 AM 6:41 PM
First Quarter, 60% visible
Pressure 30.15 in
Visibility 10.0 miles
Clouds Clear
Dew Point 30 °F
Humidity 20%
Rainfall 0.00 in
Snow Depth 0 in , 0 in , 0 in
UV 3 out of 12
Pollen 4.50 out of 12
Air Quality Not available.
Flu Activity Not available.
METAR KPVF 021635Z AUTO 14004KT 10SM CLR 23/M01 A3015 RMK AO1

More Conditions Fewer Conditions

Pressure 30.15 in
Visibility 10.0 miles
Clouds Clear
Dew Point 30 °F
Humidity 20%
Rainfall 0.00 in
Snow Depth 0 in , 0 in , 0 in
UV 3 out of 12
Pollen 4.50 out of 12
Air Quality Not available.
Flu Activity Not available.
METAR KPVF 021635Z AUTO 14004KT 10SM CLR 23/M01 A3015 RMK AO1

More Conditions Fewer Conditions

10-Day Weather Forecast

Almanac

Astronomy

Oct. 02, 2014 Rise Set
Actual Time 6:57 AM PDT 6:41 PM PDT
Civil Twilight 6:30 AM PDT 7:07 PM PDT
Nautical Twilight 5:59 AM PDT 7:38 PM PDT
Astronomical Twilight 5:28 AM PDT 8:09 PM PDT
Moon 2:48 PM PDT 12:22 AM PDT
Length of Visible Light 12h 37m
Length of Day
11h 44m
Tomorrow will be 2m 30s shorter.
First Quarter, 60% of the Moon is Illuminated
Today
First Quarter
Oct 8
Full
Oct 15
Last Quarter
Oct 23
New
Oct 30
First Quarter

Today's Extremes

State Highs State Lows

Community

WunderPhotos

Upload Photos

1,758,294 photos uploaded!

WunderBlogs® & News

Nearby

Snow Depth

Station Depth Elevation
Fallen Leaf 0 in 6300 ft
Tahoe City Cross 0 in 6750 ft
Blue Lakes 0 in 8000 ft
Rubicon #2 1 in 7500 ft
Monitor Pass 0 in 8350 ft

Earthquake Activity

City Distance Mag. Time & Date
East Foothills, California 136 miles 2.6 3:34 PM PDT
2014-09-30
Minimum magnitude displayed is 2.5.

Coastal Water Temperatures

Place Temperature
No Stations Reporting

Nearby Weather Stations